sensor_id;sensor_type;location;lat;lon;timestamp;P1;durP1;ratioP1;P2;durP2;ratioP2
51758;SDS011;66684;47.568;18.734;2023-07-31T00:00:57;9.20;;;3.15;;
51758;SDS011;66684;47.568;18.734;2023-07-31T00:03:23;5.28;;;3.03;;
51758;SDS011;66684;47.568;18.734;2023-07-31T00:05:49;4.20;;;2.90;;
51758;SDS011;66684;47.568;18.734;2023-07-31T00:08:16;5.03;;;3.28;;
51758;SDS011;66684;47.568;18.734;2023-07-31T00:10:41;6.78;;;2.60;;
51758;SDS011;66684;47.568;18.734;2023-07-31T00:13:07;5.47;;;3.03;;
51758;SDS011;66684;47.568;18.734;2023-07-31T00:15:33;9.52;;;3.60;;
51758;SDS011;66684;47.568;18.734;2023-07-31T00:17:59;11.48;;;3.75;;
51758;SDS011;66684;47.568;18.734;2023-07-31T00:20:26;6.00;;;3.60;;
51758;SDS011;66684;47.568;18.734;2023-07-31T00:22:52;5.90;;;3.92;;
51758;SDS011;66684;47.568;18.734;2023-07-31T00:25:18;7.70;;;3.85;;
51758;SDS011;66684;47.568;18.734;2023-07-31T00:27:44;7.78;;;3.60;;
51758;SDS011;66684;47.568;18.734;2023-07-31T00:30:11;7.37;;;3.70;;
51758;SDS011;66684;47.568;18.734;2023-07-31T00:32:37;6.85;;;3.70;;
51758;SDS011;66684;47.568;18.734;2023-07-31T00:35:03;5.72;;;3.28;;
51758;SDS011;66684;47.568;18.734;2023-07-31T00:37:29;8.43;;;3.45;;
51758;SDS011;66684;47.568;18.734;2023-07-31T00:39:55;6.12;;;3.42;;
51758;SDS011;66684;47.568;18.734;2023-07-31T00:42:21;7.65;;;3.40;;
51758;SDS011;66684;47.568;18.734;2023-07-31T00:44:47;5.62;;;3.30;;
51758;SDS011;66684;47.568;18.734;2023-07-31T00:47:13;3.67;;;2.97;;
51758;SDS011;66684;47.568;18.734;2023-07-31T00:49:39;6.43;;;3.50;;
51758;SDS011;66684;47.568;18.734;2023-07-31T00:52:05;6.72;;;3.12;;
51758;SDS011;66684;47.568;18.734;2023-07-31T00:54:31;3.50;;;2.85;;
51758;SDS011;66684;47.568;18.734;2023-07-31T00:56:57;5.00;;;3.30;;
51758;SDS011;66684;47.568;18.734;2023-07-31T00:59:23;4.50;;;3.37;;
51758;SDS011;66684;47.568;18.734;2023-07-31T01:01:49;5.68;;;3.40;;
51758;SDS011;66684;47.568;18.734;2023-07-31T01:04:15;5.30;;;3.47;;
51758;SDS011;66684;47.568;18.734;2023-07-31T01:06:44;8.98;;;3.50;;
51758;SDS011;66684;47.568;18.734;2023-07-31T01:09:22;3.85;;;2.97;;
51758;SDS011;66684;47.568;18.734;2023-07-31T01:12:02;5.80;;;3.10;;
51758;SDS011;66684;47.568;18.734;2023-07-31T01:14:29;8.15;;;3.25;;
51758;SDS011;66684;47.568;18.734;2023-07-31T01:16:55;6.95;;;2.90;;
51758;SDS011;66684;47.568;18.734;2023-07-31T01:19:22;7.05;;;2.70;;
51758;SDS011;66684;47.568;18.734;2023-07-31T01:24:49;4.22;;;2.40;;
51758;SDS011;66684;47.568;18.734;2023-07-31T01:27:23;7.57;;;2.30;;
51758;SDS011;66684;47.568;18.734;2023-07-31T01:29:59;5.22;;;1.87;;
51758;SDS011;66684;47.568;18.734;2023-07-31T01:32:36;5.45;;;1.65;;
51758;SDS011;66684;47.568;18.734;2023-07-31T01:35:06;5.55;;;1.85;;
51758;SDS011;66684;47.568;18.734;2023-07-31T01:37:33;3.30;;;1.62;;
51758;SDS011;66684;47.568;18.734;2023-07-31T01:39:58;3.08;;;1.55;;
51758;SDS011;66684;47.568;18.734;2023-07-31T01:42:24;6.45;;;1.40;;
51758;SDS011;66684;47.568;18.734;2023-07-31T01:44:50;4.20;;;1.65;;
51758;SDS011;66684;47.568;18.734;2023-07-31T01:47:16;6.20;;;1.50;;
51758;SDS011;66684;47.568;18.734;2023-07-31T01:49:42;3.65;;;1.50;;
51758;SDS011;66684;47.568;18.734;2023-07-31T01:52:08;4.45;;;1.30;;
51758;SDS011;66684;47.568;18.734;2023-07-31T01:54:34;7.95;;;1.60;;
51758;SDS011;66684;47.568;18.734;2023-07-31T01:57:00;3.90;;;1.70;;
51758;SDS011;66684;47.568;18.734;2023-07-31T01:59:25;3.10;;;1.37;;
51758;SDS011;66684;47.568;18.734;2023-07-31T02:01:51;6.25;;;1.50;;
51758;SDS011;66684;47.568;18.734;2023-07-31T02:04:17;2.62;;;1.67;;
51758;SDS011;66684;47.568;18.734;2023-07-31T02:06:43;2.85;;;1.45;;
51758;SDS011;66684;47.568;18.734;2023-07-31T02:09:09;3.42;;;1.50;;
51758;SDS011;66684;47.568;18.734;2023-07-31T02:11:35;2.97;;;1.45;;
51758;SDS011;66684;47.568;18.734;2023-07-31T02:14:01;5.45;;;1.42;;
51758;SDS011;66684;47.568;18.734;2023-07-31T02:16:27;4.75;;;1.55;;
51758;SDS011;66684;47.568;18.734;2023-07-31T02:18:53;2.60;;;1.40;;
51758;SDS011;66684;47.568;18.734;2023-07-31T02:21:18;3.85;;;1.30;;
51758;SDS011;66684;47.568;18.734;2023-07-31T02:23:44;5.15;;;1.67;;
51758;SDS011;66684;47.568;18.734;2023-07-31T02:26:10;2.45;;;1.40;;
51758;SDS011;66684;47.568;18.734;2023-07-31T02:28:36;6.35;;;1.25;;
51758;SDS011;66684;47.568;18.734;2023-07-31T02:31:02;3.20;;;1.20;;
51758;SDS011;66684;47.568;18.734;2023-07-31T02:33:28;3.47;;;1.73;;
51758;SDS011;66684;47.568;18.734;2023-07-31T02:35:54;3.40;;;1.30;;
51758;SDS011;66684;47.568;18.734;2023-07-31T02:38:20;2.72;;;1.65;;
51758;SDS011;66684;47.568;18.734;2023-07-31T02:40:46;4.93;;;1.40;;
51758;SDS011;66684;47.568;18.734;2023-07-31T02:43:13;2.50;;;1.33;;
51758;SDS011;66684;47.568;18.734;2023-07-31T02:45:39;4.62;;;1.40;;
51758;SDS011;66684;47.568;18.734;2023-07-31T02:48:05;3.85;;;1.37;;
51758;SDS011;66684;47.568;18.734;2023-07-31T02:50:31;5.93;;;1.15;;
51758;SDS011;66684;47.568;18.734;2023-07-31T02:52:57;5.18;;;1.45;;
51758;SDS011;66684;47.568;18.734;2023-07-31T02:55:23;4.62;;;1.30;;
51758;SDS011;66684;47.568;18.734;2023-07-31T02:57:49;6.03;;;1.23;;
51758;SDS011;66684;47.568;18.734;2023-07-31T03:00:15;3.15;;;1.20;;
51758;SDS011;66684;47.568;18.734;2023-07-31T03:02:41;2.70;;;1.33;;
51758;SDS011;66684;47.568;18.734;2023-07-31T03:05:07;4.82;;;1.27;;
51758;SDS011;66684;47.568;18.734;2023-07-31T03:07:33;3.17;;;1.20;;
51758;SDS011;66684;47.568;18.734;2023-07-31T03:09:59;4.35;;;1.27;;
51758;SDS011;66684;47.568;18.734;2023-07-31T03:12:25;4.40;;;1.20;;
51758;SDS011;66684;47.568;18.734;2023-07-31T03:14:51;2.75;;;1.25;;
51758;SDS011;66684;47.568;18.734;2023-07-31T03:17:16;5.53;;;1.35;;
51758;SDS011;66684;47.568;18.734;2023-07-31T03:19:42;3.10;;;1.30;;
51758;SDS011;66684;47.568;18.734;2023-07-31T03:22:08;5.32;;;1.30;;
51758;SDS011;66684;47.568;18.734;2023-07-31T03:24:34;3.42;;;1.17;;
51758;SDS011;66684;47.568;18.734;2023-07-31T03:27:00;6.60;;;1.27;;
51758;SDS011;66684;47.568;18.734;2023-07-31T03:29:26;3.42;;;1.20;;
51758;SDS011;66684;47.568;18.734;2023-07-31T03:31:52;4.97;;;1.20;;
51758;SDS011;66684;47.568;18.734;2023-07-31T03:34:18;3.95;;;1.50;;
51758;SDS011;66684;47.568;18.734;2023-07-31T03:36:44;5.10;;;1.50;;
51758;SDS011;66684;47.568;18.734;2023-07-31T03:39:10;3.83;;;1.45;;
51758;SDS011;66684;47.568;18.734;2023-07-31T03:41:35;2.75;;;1.50;;
51758;SDS011;66684;47.568;18.734;2023-07-31T03:44:01;3.80;;;1.45;;
51758;SDS011;66684;47.568;18.734;2023-07-31T03:46:27;5.40;;;1.27;;
51758;SDS011;66684;47.568;18.734;2023-07-31T03:48:53;4.30;;;1.60;;
51758;SDS011;66684;47.568;18.734;2023-07-31T03:51:19;3.35;;;1.33;;
51758;SDS011;66684;47.568;18.734;2023-07-31T03:53:45;5.32;;;1.35;;
51758;SDS011;66684;47.568;18.734;2023-07-31T03:56:11;3.10;;;1.30;;
51758;SDS011;66684;47.568;18.734;2023-07-31T03:58:37;3.55;;;1.10;;
51758;SDS011;66684;47.568;18.734;2023-07-31T04:01:03;2.62;;;1.20;;
51758;SDS011;66684;47.568;18.734;2023-07-31T04:03:29;8.98;;;1.02;;
51758;SDS011;66684;47.568;18.734;2023-07-31T04:05:55;5.05;;;0.80;;
51758;SDS011;66684;47.568;18.734;2023-07-31T04:08:22;3.53;;;1.20;;
51758;SDS011;66684;47.568;18.734;2023-07-31T04:10:48;3.10;;;0.90;;
51758;SDS011;66684;47.568;18.734;2023-07-31T04:13:14;2.78;;;0.95;;
51758;SDS011;66684;47.568;18.734;2023-07-31T04:15:40;1.80;;;0.80;;
51758;SDS011;66684;47.568;18.734;2023-07-31T04:18:06;3.03;;;0.80;;
51758;SDS011;66684;47.568;18.734;2023-07-31T04:20:32;1.67;;;0.70;;
51758;SDS011;66684;47.568;18.734;2023-07-31T04:22:58;4.53;;;1.00;;
51758;SDS011;66684;47.568;18.734;2023-07-31T04:25:24;2.60;;;1.05;;
51758;SDS011;66684;47.568;18.734;2023-07-31T04:27:50;3.30;;;0.80;;
51758;SDS011;66684;47.568;18.734;2023-07-31T04:30:16;6.85;;;1.10;;
51758;SDS011;66684;47.568;18.734;2023-07-31T04:32:42;3.95;;;0.82;;
51758;SDS011;66684;47.568;18.734;2023-07-31T04:35:08;5.72;;;1.05;;
51758;SDS011;66684;47.568;18.734;2023-07-31T04:37:33;8.73;;;0.88;;
51758;SDS011;66684;47.568;18.734;2023-07-31T04:39:59;4.10;;;0.77;;
51758;SDS011;66684;47.568;18.734;2023-07-31T04:42:25;3.15;;;0.62;;
51758;SDS011;66684;47.568;18.734;2023-07-31T04:44:51;2.70;;;0.80;;
51758;SDS011;66684;47.568;18.734;2023-07-31T04:47:18;2.75;;;0.60;;
51758;SDS011;66684;47.568;18.734;2023-07-31T04:49:45;2.00;;;0.70;;
51758;SDS011;66684;47.568;18.734;2023-07-31T04:52:10;3.45;;;0.70;;
51758;SDS011;66684;47.568;18.734;2023-07-31T04:54:36;3.40;;;0.95;;
51758;SDS011;66684;47.568;18.734;2023-07-31T04:57:02;1.25;;;0.60;;
51758;SDS011;66684;47.568;18.734;2023-07-31T04:59:28;6.07;;;0.70;;
51758;SDS011;66684;47.568;18.734;2023-07-31T05:01:55;2.80;;;0.75;;
51758;SDS011;66684;47.568;18.734;2023-07-31T05:04:21;4.05;;;0.65;;
51758;SDS011;66684;47.568;18.734;2023-07-31T05:06:46;2.20;;;0.70;;
51758;SDS011;66684;47.568;18.734;2023-07-31T05:09:12;3.97;;;0.68;;
51758;SDS011;66684;47.568;18.734;2023-07-31T05:11:38;2.47;;;0.88;;
51758;SDS011;66684;47.568;18.734;2023-07-31T05:14:06;3.95;;;0.73;;
51758;SDS011;66684;47.568;18.734;2023-07-31T05:16:31;2.67;;;0.90;;
51758;SDS011;66684;47.568;18.734;2023-07-31T05:18:57;6.97;;;1.00;;
51758;SDS011;66684;47.568;18.734;2023-07-31T05:21:23;3.60;;;0.65;;
51758;SDS011;66684;47.568;18.734;2023-07-31T05:23:49;2.03;;;0.65;;
51758;SDS011;66684;47.568;18.734;2023-07-31T05:26:15;4.65;;;0.70;;
51758;SDS011;66684;47.568;18.734;2023-07-31T05:28:41;2.65;;;0.57;;
51758;SDS011;66684;47.568;18.734;2023-07-31T05:31:07;3.28;;;0.88;;
51758;SDS011;66684;47.568;18.734;2023-07-31T05:33:33;3.05;;;0.73;;
51758;SDS011;66684;47.568;18.734;2023-07-31T05:35:59;1.77;;;0.70;;
51758;SDS011;66684;47.568;18.734;2023-07-31T05:38:25;4.60;;;1.00;;
51758;SDS011;66684;47.568;18.734;2023-07-31T05:40:50;2.50;;;0.62;;
51758;SDS011;66684;47.568;18.734;2023-07-31T05:43:16;3.65;;;0.90;;
51758;SDS011;66684;47.568;18.734;2023-07-31T05:45:42;5.28;;;0.70;;
51758;SDS011;66684;47.568;18.734;2023-07-31T05:48:08;2.92;;;0.88;;
51758;SDS011;66684;47.568;18.734;2023-07-31T05:50:34;2.60;;;0.90;;
51758;SDS011;66684;47.568;18.734;2023-07-31T05:53:00;3.35;;;0.68;;
51758;SDS011;66684;47.568;18.734;2023-07-31T05:55:26;2.37;;;0.47;;
51758;SDS011;66684;47.568;18.734;2023-07-31T05:57:53;3.45;;;0.70;;
51758;SDS011;66684;47.568;18.734;2023-07-31T06:00:19;1.70;;;0.60;;
51758;SDS011;66684;47.568;18.734;2023-07-31T06:02:46;1.50;;;0.60;;
51758;SDS011;66684;47.568;18.734;2023-07-31T06:05:13;6.03;;;0.70;;
51758;SDS011;66684;47.568;18.734;2023-07-31T06:07:39;1.90;;;0.60;;
51758;SDS011;66684;47.568;18.734;2023-07-31T06:10:05;3.25;;;0.90;;
51758;SDS011;66684;47.568;18.734;2023-07-31T06:12:31;3.15;;;0.88;;
51758;SDS011;66684;47.568;18.734;2023-07-31T06:14:58;1.62;;;0.40;;
51758;SDS011;66684;47.568;18.734;2023-07-31T06:17:24;4.07;;;0.60;;
51758;SDS011;66684;47.568;18.734;2023-07-31T06:19:51;3.53;;;0.60;;
51758;SDS011;66684;47.568;18.734;2023-07-31T06:22:17;4.10;;;0.68;;
51758;SDS011;66684;47.568;18.734;2023-07-31T06:24:43;3.33;;;0.75;;
51758;SDS011;66684;47.568;18.734;2023-07-31T06:27:10;3.90;;;0.60;;
51758;SDS011;66684;47.568;18.734;2023-07-31T06:29:36;4.97;;;0.90;;
51758;SDS011;66684;47.568;18.734;2023-07-31T06:32:03;5.05;;;0.50;;
51758;SDS011;66684;47.568;18.734;2023-07-31T06:34:29;2.72;;;0.62;;
51758;SDS011;66684;47.568;18.734;2023-07-31T06:36:55;4.12;;;0.98;;
51758;SDS011;66684;47.568;18.734;2023-07-31T06:39:22;3.30;;;0.68;;
51758;SDS011;66684;47.568;18.734;2023-07-31T06:41:47;2.25;;;0.65;;
51758;SDS011;66684;47.568;18.734;2023-07-31T06:44:13;4.30;;;0.93;;
51758;SDS011;66684;47.568;18.734;2023-07-31T06:46:39;2.30;;;0.55;;
51758;SDS011;66684;47.568;18.734;2023-07-31T06:49:05;4.57;;;0.77;;
51758;SDS011;66684;47.568;18.734;2023-07-31T06:51:31;5.37;;;0.62;;
51758;SDS011;66684;47.568;18.734;2023-07-31T06:53:57;3.62;;;0.80;;
51758;SDS011;66684;47.568;18.734;2023-07-31T06:56:23;2.72;;;0.70;;
51758;SDS011;66684;47.568;18.734;2023-07-31T06:58:49;2.53;;;0.50;;
51758;SDS011;66684;47.568;18.734;2023-07-31T07:01:15;1.62;;;0.57;;
51758;SDS011;66684;47.568;18.734;2023-07-31T07:03:41;3.65;;;0.77;;
51758;SDS011;66684;47.568;18.734;2023-07-31T07:06:07;4.93;;;0.70;;
51758;SDS011;66684;47.568;18.734;2023-07-31T07:08:33;5.28;;;0.70;;
51758;SDS011;66684;47.568;18.734;2023-07-31T07:10:58;5.62;;;0.82;;
51758;SDS011;66684;47.568;18.734;2023-07-31T07:13:25;5.03;;;0.80;;
51758;SDS011;66684;47.568;18.734;2023-07-31T07:15:51;2.08;;;0.68;;
51758;SDS011;66684;47.568;18.734;2023-07-31T07:18:17;3.83;;;0.77;;
51758;SDS011;66684;47.568;18.734;2023-07-31T07:20:49;6.22;;;0.75;;
51758;SDS011;66684;47.568;18.734;2023-07-31T07:23:16;3.12;;;0.80;;
51758;SDS011;66684;47.568;18.734;2023-07-31T07:25:43;6.65;;;0.80;;
51758;SDS011;66684;47.568;18.734;2023-07-31T07:28:09;3.10;;;0.75;;
51758;SDS011;66684;47.568;18.734;2023-07-31T07:30:35;3.25;;;0.75;;
51758;SDS011;66684;47.568;18.734;2023-07-31T07:33:01;2.05;;;0.68;;
51758;SDS011;66684;47.568;18.734;2023-07-31T07:35:27;2.60;;;0.88;;
51758;SDS011;66684;47.568;18.734;2023-07-31T07:37:53;4.18;;;0.73;;
51758;SDS011;66684;47.568;18.734;2023-07-31T07:40:20;4.10;;;0.70;;
51758;SDS011;66684;47.568;18.734;2023-07-31T07:42:46;3.58;;;0.70;;
51758;SDS011;66684;47.568;18.734;2023-07-31T07:45:12;7.15;;;0.70;;
51758;SDS011;66684;47.568;18.734;2023-07-31T07:47:40;3.22;;;0.50;;
51758;SDS011;66684;47.568;18.734;2023-07-31T07:50:06;2.35;;;0.55;;
51758;SDS011;66684;47.568;18.734;2023-07-31T07:52:33;3.95;;;0.95;;
51758;SDS011;66684;47.568;18.734;2023-07-31T07:54:59;3.12;;;0.70;;
51758;SDS011;66684;47.568;18.734;2023-07-31T07:57:26;4.97;;;0.80;;
51758;SDS011;66684;47.568;18.734;2023-07-31T07:59:52;1.73;;;0.47;;
51758;SDS011;66684;47.568;18.734;2023-07-31T08:02:18;5.10;;;0.77;;
51758;SDS011;66684;47.568;18.734;2023-07-31T08:04:44;3.72;;;0.65;;
51758;SDS011;66684;47.568;18.734;2023-07-31T08:07:13;6.53;;;0.73;;
51758;SDS011;66684;47.568;18.734;2023-07-31T08:09:39;5.97;;;0.65;;
51758;SDS011;66684;47.568;18.734;2023-07-31T08:12:05;3.58;;;0.70;;
51758;SDS011;66684;47.568;18.734;2023-07-31T08:14:31;4.00;;;0.77;;
51758;SDS011;66684;47.568;18.734;2023-07-31T08:16:57;3.12;;;0.80;;
51758;SDS011;66684;47.568;18.734;2023-07-31T08:19:23;3.72;;;0.73;;
51758;SDS011;66684;47.568;18.734;2023-07-31T08:21:49;5.00;;;1.00;;
51758;SDS011;66684;47.568;18.734;2023-07-31T08:24:15;3.50;;;0.70;;
51758;SDS011;66684;47.568;18.734;2023-07-31T08:26:41;3.20;;;0.55;;
51758;SDS011;66684;47.568;18.734;2023-07-31T08:29:08;3.15;;;0.70;;
51758;SDS011;66684;47.568;18.734;2023-07-31T08:31:34;5.60;;;1.10;;
51758;SDS011;66684;47.568;18.734;2023-07-31T08:34:00;3.42;;;0.85;;
51758;SDS011;66684;47.568;18.734;2023-07-31T08:36:26;2.67;;;0.62;;
51758;SDS011;66684;47.568;18.734;2023-07-31T08:38:52;4.55;;;1.05;;
51758;SDS011;66684;47.568;18.734;2023-07-31T08:41:18;4.82;;;0.80;;
51758;SDS011;66684;47.568;18.734;2023-07-31T08:43:45;5.32;;;0.80;;
51758;SDS011;66684;47.568;18.734;2023-07-31T08:46:12;4.00;;;0.70;;
51758;SDS011;66684;47.568;18.734;2023-07-31T08:48:41;4.25;;;0.60;;
51758;SDS011;66684;47.568;18.734;2023-07-31T08:51:08;4.72;;;0.80;;
51758;SDS011;66684;47.568;18.734;2023-07-31T08:53:34;4.37;;;0.80;;
51758;SDS011;66684;47.568;18.734;2023-07-31T08:56:00;4.00;;;0.77;;
51758;SDS011;66684;47.568;18.734;2023-07-31T08:58:28;4.00;;;0.77;;
51758;SDS011;66684;47.568;18.734;2023-07-31T09:00:57;5.00;;;0.90;;
51758;SDS011;66684;47.568;18.734;2023-07-31T09:03:26;3.80;;;0.50;;
51758;SDS011;66684;47.568;18.734;2023-07-31T09:05:52;4.35;;;0.60;;
51758;SDS011;66684;47.568;18.734;2023-07-31T09:08:21;4.25;;;0.77;;
51758;SDS011;66684;47.568;18.734;2023-07-31T09:10:47;3.12;;;0.70;;
51758;SDS011;66684;47.568;18.734;2023-07-31T09:13:17;5.10;;;0.70;;
51758;SDS011;66684;47.568;18.734;2023-07-31T09:15:44;5.25;;;0.90;;
51758;SDS011;66684;47.568;18.734;2023-07-31T09:18:10;5.22;;;0.75;;
51758;SDS011;66684;47.568;18.734;2023-07-31T09:20:37;4.47;;;0.82;;
51758;SDS011;66684;47.568;18.734;2023-07-31T09:23:10;4.40;;;0.73;;
51758;SDS011;66684;47.568;18.734;2023-07-31T09:25:38;2.97;;;0.52;;
51758;SDS011;66684;47.568;18.734;2023-07-31T09:28:08;2.12;;;0.37;;
51758;SDS011;66684;47.568;18.734;2023-07-31T09:30:47;3.67;;;0.60;;
51758;SDS011;66684;47.568;18.734;2023-07-31T09:33:14;4.97;;;0.70;;
51758;SDS011;66684;47.568;18.734;2023-07-31T09:35:41;3.10;;;0.62;;
51758;SDS011;66684;47.568;18.734;2023-07-31T09:38:08;4.20;;;0.75;;
51758;SDS011;66684;47.568;18.734;2023-07-31T09:40:36;6.60;;;0.40;;
51758;SDS011;66684;47.568;18.734;2023-07-31T09:43:07;3.20;;;0.57;;
51758;SDS011;66684;47.568;18.734;2023-07-31T09:45:36;5.07;;;0.60;;
51758;SDS011;66684;47.568;18.734;2023-07-31T09:48:09;4.57;;;0.70;;
51758;SDS011;66684;47.568;18.734;2023-07-31T09:50:43;8.38;;;0.60;;
51758;SDS011;66684;47.568;18.734;2023-07-31T09:53:10;3.40;;;0.60;;
51758;SDS011;66684;47.568;18.734;2023-07-31T09:55:37;4.47;;;0.50;;
51758;SDS011;66684;47.568;18.734;2023-07-31T09:58:04;4.35;;;0.45;;
51758;SDS011;66684;47.568;18.734;2023-07-31T10:00:31;2.22;;;0.40;;
51758;SDS011;66684;47.568;18.734;2023-07-31T10:02:58;2.00;;;0.40;;
51758;SDS011;66684;47.568;18.734;2023-07-31T10:08:15;2.30;;;0.40;;
51758;SDS011;66684;47.568;18.734;2023-07-31T10:10:43;3.42;;;0.50;;
51758;SDS011;66684;47.568;18.734;2023-07-31T10:13:09;3.40;;;0.40;;
51758;SDS011;66684;47.568;18.734;2023-07-31T10:15:36;3.55;;;0.65;;
51758;SDS011;66684;47.568;18.734;2023-07-31T10:18:02;4.40;;;0.50;;
51758;SDS011;66684;47.568;18.734;2023-07-31T10:20:31;4.05;;;0.40;;
51758;SDS011;66684;47.568;18.734;2023-07-31T10:22:57;2.70;;;0.35;;
51758;SDS011;66684;47.568;18.734;2023-07-31T10:25:26;6.35;;;0.70;;
51758;SDS011;66684;47.568;18.734;2023-07-31T10:27:53;5.03;;;0.35;;
51758;SDS011;66684;47.568;18.734;2023-07-31T10:30:26;2.75;;;0.37;;
51758;SDS011;66684;47.568;18.734;2023-07-31T10:32:55;6.43;;;0.50;;
51758;SDS011;66684;47.568;18.734;2023-07-31T10:35:22;4.47;;;0.40;;
51758;SDS011;66684;47.568;18.734;2023-07-31T10:37:48;3.03;;;0.40;;
51758;SDS011;66684;47.568;18.734;2023-07-31T10:40:18;3.22;;;0.37;;
51758;SDS011;66684;47.568;18.734;2023-07-31T10:42:53;3.45;;;0.50;;
51758;SDS011;66684;47.568;18.734;2023-07-31T10:47:59;2.47;;;0.30;;
51758;SDS011;66684;47.568;18.734;2023-07-31T10:50:29;2.85;;;0.30;;
51758;SDS011;66684;47.568;18.734;2023-07-31T10:52:58;1.45;;;0.25;;
51758;SDS011;66684;47.568;18.734;2023-07-31T10:55:25;3.95;;;0.47;;
51758;SDS011;66684;47.568;18.734;2023-07-31T10:57:51;2.75;;;0.40;;
51758;SDS011;66684;47.568;18.734;2023-07-31T11:00:21;4.30;;;0.50;;
51758;SDS011;66684;47.568;18.734;2023-07-31T11:03:02;4.47;;;0.40;;
51758;SDS011;66684;47.568;18.734;2023-07-31T11:08:23;1.85;;;0.40;;
51758;SDS011;66684;47.568;18.734;2023-07-31T11:13:31;3.22;;;0.70;;
51758;SDS011;66684;47.568;18.734;2023-07-31T11:15:57;3.53;;;0.57;;
51758;SDS011;66684;47.568;18.734;2023-07-31T11:18:24;2.25;;;0.30;;
51758;SDS011;66684;47.568;18.734;2023-07-31T11:20:51;2.50;;;0.47;;
51758;SDS011;66684;47.568;18.734;2023-07-31T11:23:17;2.47;;;0.40;;
51758;SDS011;66684;47.568;18.734;2023-07-31T11:25:43;5.18;;;0.40;;
51758;SDS011;66684;47.568;18.734;2023-07-31T11:28:11;2.58;;;0.30;;
51758;SDS011;66684;47.568;18.734;2023-07-31T11:30:38;4.32;;;0.47;;
51758;SDS011;66684;47.568;18.734;2023-07-31T11:33:06;1.55;;;0.37;;
51758;SDS011;66684;47.568;18.734;2023-07-31T11:35:41;2.97;;;0.50;;
51758;SDS011;66684;47.568;18.734;2023-07-31T11:38:29;2.97;;;0.50;;
51758;SDS011;66684;47.568;18.734;2023-07-31T11:41:02;2.03;;;0.37;;
51758;SDS011;66684;47.568;18.734;2023-07-31T11:43:30;5.90;;;0.60;;
51758;SDS011;66684;47.568;18.734;2023-07-31T11:45:58;2.92;;;0.30;;
51758;SDS011;66684;47.568;18.734;2023-07-31T11:48:25;4.32;;;0.40;;
51758;SDS011;66684;47.568;18.734;2023-07-31T11:51:00;2.50;;;0.50;;
51758;SDS011;66684;47.568;18.734;2023-07-31T11:53:35;3.75;;;0.47;;
51758;SDS011;66684;47.568;18.734;2023-07-31T11:56:03;4.20;;;0.60;;
51758;SDS011;66684;47.568;18.734;2023-07-31T11:58:31;3.40;;;0.60;;
51758;SDS011;66684;47.568;18.734;2023-07-31T12:00:59;6.35;;;0.45;;
51758;SDS011;66684;47.568;18.734;2023-07-31T12:03:26;3.70;;;0.50;;
51758;SDS011;66684;47.568;18.734;2023-07-31T12:05:52;5.68;;;0.50;;
51758;SDS011;66684;47.568;18.734;2023-07-31T12:08:20;2.92;;;0.57;;
51758;SDS011;66684;47.568;18.734;2023-07-31T12:10:47;4.22;;;0.45;;
51758;SDS011;66684;47.568;18.734;2023-07-31T12:13:25;2.25;;;0.40;;
51758;SDS011;66684;47.568;18.734;2023-07-31T12:15:55;4.53;;;0.70;;
51758;SDS011;66684;47.568;18.734;2023-07-31T12:18:23;2.15;;;0.30;;
51758;SDS011;66684;47.568;18.734;2023-07-31T12:21:08;9.82;;;0.40;;
51758;SDS011;66684;47.568;18.734;2023-07-31T12:23:37;2.22;;;0.40;;
51758;SDS011;66684;47.568;18.734;2023-07-31T12:26:03;2.03;;;0.40;;
51758;SDS011;66684;47.568;18.734;2023-07-31T12:28:35;5.35;;;0.40;;
51758;SDS011;66684;47.568;18.734;2023-07-31T12:31:03;3.78;;;0.40;;
51758;SDS011;66684;47.568;18.734;2023-07-31T12:33:34;2.87;;;0.50;;
51758;SDS011;66684;47.568;18.734;2023-07-31T12:36:01;4.55;;;0.37;;
51758;SDS011;66684;47.568;18.734;2023-07-31T12:38:29;4.18;;;0.30;;
51758;SDS011;66684;47.568;18.734;2023-07-31T12:40:55;5.12;;;0.60;;
51758;SDS011;66684;47.568;18.734;2023-07-31T12:43:22;2.95;;;0.30;;
51758;SDS011;66684;47.568;18.734;2023-07-31T12:45:47;2.75;;;0.50;;
51758;SDS011;66684;47.568;18.734;2023-07-31T12:48:13;3.22;;;0.40;;
51758;SDS011;66684;47.568;18.734;2023-07-31T12:50:39;3.35;;;0.50;;
51758;SDS011;66684;47.568;18.734;2023-07-31T12:53:05;3.47;;;0.43;;
51758;SDS011;66684;47.568;18.734;2023-07-31T12:55:32;2.95;;;0.40;;
51758;SDS011;66684;47.568;18.734;2023-07-31T12:58:02;1.37;;;0.35;;
51758;SDS011;66684;47.568;18.734;2023-07-31T13:00:28;3.17;;;0.40;;
51758;SDS011;66684;47.568;18.734;2023-07-31T13:02:54;4.30;;;0.60;;
51758;SDS011;66684;47.568;18.734;2023-07-31T13:05:20;4.97;;;0.52;;
51758;SDS011;66684;47.568;18.734;2023-07-31T13:07:47;3.40;;;0.40;;
51758;SDS011;66684;47.568;18.734;2023-07-31T13:10:13;2.20;;;0.57;;
51758;SDS011;66684;47.568;18.734;2023-07-31T13:12:40;5.70;;;0.60;;
51758;SDS011;66684;47.568;18.734;2023-07-31T13:15:06;3.17;;;0.52;;
51758;SDS011;66684;47.568;18.734;2023-07-31T13:17:33;5.43;;;0.40;;
51758;SDS011;66684;47.568;18.734;2023-07-31T13:19:59;3.97;;;0.40;;
51758;SDS011;66684;47.568;18.734;2023-07-31T13:22:25;2.15;;;0.40;;
51758;SDS011;66684;47.568;18.734;2023-07-31T13:24:51;1.42;;;0.40;;
51758;SDS011;66684;47.568;18.734;2023-07-31T13:27:17;2.55;;;0.52;;
51758;SDS011;66684;47.568;18.734;2023-07-31T13:29:45;3.53;;;0.50;;
51758;SDS011;66684;47.568;18.734;2023-07-31T13:32:11;3.28;;;0.47;;
51758;SDS011;66684;47.568;18.734;2023-07-31T13:34:37;3.45;;;0.45;;
51758;SDS011;66684;47.568;18.734;2023-07-31T13:37:03;3.00;;;0.50;;
51758;SDS011;66684;47.568;18.734;2023-07-31T13:39:31;5.65;;;0.80;;
51758;SDS011;66684;47.568;18.734;2023-07-31T13:41:59;3.87;;;0.65;;
51758;SDS011;66684;47.568;18.734;2023-07-31T13:44:25;3.47;;;0.50;;
51758;SDS011;66684;47.568;18.734;2023-07-31T13:46:51;3.10;;;0.50;;
51758;SDS011;66684;47.568;18.734;2023-07-31T13:49:17;2.12;;;0.50;;
51758;SDS011;66684;47.568;18.734;2023-07-31T13:51:43;2.70;;;0.40;;
51758;SDS011;66684;47.568;18.734;2023-07-31T13:54:09;2.80;;;0.47;;
51758;SDS011;66684;47.568;18.734;2023-07-31T13:56:37;3.10;;;0.50;;
51758;SDS011;66684;47.568;18.734;2023-07-31T13:59:03;4.53;;;0.55;;
51758;SDS011;66684;47.568;18.734;2023-07-31T14:01:29;4.07;;;0.40;;
51758;SDS011;66684;47.568;18.734;2023-07-31T14:03:55;2.83;;;0.35;;
51758;SDS011;66684;47.568;18.734;2023-07-31T14:06:21;4.95;;;0.50;;
51758;SDS011;66684;47.568;18.734;2023-07-31T14:08:47;2.08;;;0.30;;
51758;SDS011;66684;47.568;18.734;2023-07-31T14:11:13;6.07;;;0.52;;
51758;SDS011;66684;47.568;18.734;2023-07-31T14:13:39;2.20;;;0.62;;
51758;SDS011;66684;47.568;18.734;2023-07-31T14:16:05;4.53;;;0.57;;
51758;SDS011;66684;47.568;18.734;2023-07-31T14:18:30;2.85;;;0.40;;
51758;SDS011;66684;47.568;18.734;2023-07-31T14:20:56;2.65;;;0.50;;
51758;SDS011;66684;47.568;18.734;2023-07-31T14:23:22;4.95;;;0.50;;
51758;SDS011;66684;47.568;18.734;2023-07-31T14:25:48;6.03;;;0.40;;
51758;SDS011;66684;47.568;18.734;2023-07-31T14:28:14;2.28;;;0.45;;
51758;SDS011;66684;47.568;18.734;2023-07-31T14:30:40;7.20;;;0.62;;
51758;SDS011;66684;47.568;18.734;2023-07-31T14:33:06;6.20;;;0.55;;
51758;SDS011;66684;47.568;18.734;2023-07-31T14:35:33;3.70;;;0.40;;
51758;SDS011;66684;47.568;18.734;2023-07-31T14:38:00;3.47;;;0.40;;
51758;SDS011;66684;47.568;18.734;2023-07-31T14:40:26;2.80;;;0.40;;
51758;SDS011;66684;47.568;18.734;2023-07-31T14:42:52;2.30;;;0.40;;
51758;SDS011;66684;47.568;18.734;2023-07-31T14:45:18;2.17;;;0.43;;